sensor_id;sensor_type;location;lat;lon;timestamp;P1;durP1;ratioP1;P2;durP2;ratioP2
583;SDS011;27024;54.068;12.116;2022-09-09T00:04:35;29.73;;;17.15;;
583;SDS011;27024;54.068;12.116;2022-09-09T00:15:46;33.53;;;16.88;;
583;SDS011;27024;54.068;12.116;2022-09-09T00:21:15;29.65;;;16.20;;
583;SDS011;27024;54.068;12.116;2022-09-09T00:23:44;29.58;;;15.57;;
583;SDS011;27024;54.068;12.116;2022-09-09T00:28:52;32.30;;;16.20;;
583;SDS011;27024;54.068;12.116;2022-09-09T00:31:34;31.35;;;15.32;;
583;SDS011;27024;54.068;12.116;2022-09-09T00:34:03;28.77;;;15.18;;
583;SDS011;27024;54.068;12.116;2022-09-09T00:36:39;28.45;;;15.20;;
583;SDS011;27024;54.068;12.116;2022-09-09T00:39:09;30.60;;;15.52;;
583;SDS011;27024;54.068;12.116;2022-09-09T00:56:23;36.13;;;17.45;;
583;SDS011;27024;54.068;12.116;2022-09-09T00:58:51;40.03;;;18.10;;
583;SDS011;27024;54.068;12.116;2022-09-09T01:01:31;40.03;;;18.10;;
583;SDS011;27024;54.068;12.116;2022-09-09T01:03:58;37.08;;;17.52;;
583;SDS011;27024;54.068;12.116;2022-09-09T01:17:15;32.90;;;16.45;;
583;SDS011;27024;54.068;12.116;2022-09-09T01:28:11;29.13;;;15.07;;
583;SDS011;27024;54.068;12.116;2022-09-09T01:30:42;24.75;;;13.70;;
583;SDS011;27024;54.068;12.116;2022-09-09T01:33:14;27.23;;;14.40;;
583;SDS011;27024;54.068;12.116;2022-09-09T01:35:52;25.23;;;13.60;;
583;SDS011;27024;54.068;12.116;2022-09-09T01:38:23;23.58;;;12.20;;
583;SDS011;27024;54.068;12.116;2022-09-09T01:40:51;20.48;;;11.35;;
583;SDS011;27024;54.068;12.116;2022-09-09T01:43:22;20.23;;;11.25;;
583;SDS011;27024;54.068;12.116;2022-09-09T01:45:51;21.15;;;11.55;;
583;SDS011;27024;54.068;12.116;2022-09-09T01:48:21;19.48;;;11.05;;
583;SDS011;27024;54.068;12.116;2022-09-09T01:50:50;19.30;;;11.27;;
583;SDS011;27024;54.068;12.116;2022-09-09T01:53:18;23.55;;;11.57;;
583;SDS011;27024;54.068;12.116;2022-09-09T01:56:02;19.75;;;10.98;;
583;SDS011;27024;54.068;12.116;2022-09-09T01:58:42;21.05;;;10.98;;
583;SDS011;27024;54.068;12.116;2022-09-09T02:01:26;21.77;;;11.30;;
583;SDS011;27024;54.068;12.116;2022-09-09T02:04:03;20.45;;;10.93;;
583;SDS011;27024;54.068;12.116;2022-09-09T02:06:55;20.65;;;11.05;;
583;SDS011;27024;54.068;12.116;2022-09-09T02:09:26;25.50;;;12.00;;
583;SDS011;27024;54.068;12.116;2022-09-09T02:12:02;18.52;;;10.82;;
583;SDS011;27024;54.068;12.116;2022-09-09T02:14:36;22.23;;;12.18;;
583;SDS011;27024;54.068;12.116;2022-09-09T02:17:09;22.55;;;11.05;;
583;SDS011;27024;54.068;12.116;2022-09-09T02:19:48;21.33;;;11.77;;
583;SDS011;27024;54.068;12.116;2022-09-09T02:22:19;23.08;;;11.50;;
583;SDS011;27024;54.068;12.116;2022-09-09T02:24:49;21.70;;;12.35;;
583;SDS011;27024;54.068;12.116;2022-09-09T02:27:20;22.15;;;12.05;;
583;SDS011;27024;54.068;12.116;2022-09-09T02:29:48;22.40;;;11.63;;
583;SDS011;27024;54.068;12.116;2022-09-09T02:32:17;22.95;;;12.52;;
583;SDS011;27024;54.068;12.116;2022-09-09T02:34:51;23.45;;;11.75;;
583;SDS011;27024;54.068;12.116;2022-09-09T02:37:22;24.42;;;12.88;;
583;SDS011;27024;54.068;12.116;2022-09-09T02:39:54;25.23;;;13.45;;
583;SDS011;27024;54.068;12.116;2022-09-09T02:42:21;27.67;;;13.73;;
583;SDS011;27024;54.068;12.116;2022-09-09T02:44:48;26.15;;;13.68;;
583;SDS011;27024;54.068;12.116;2022-09-09T02:52:13;30.60;;;15.30;;
583;SDS011;27024;54.068;12.116;2022-09-09T02:54:42;29.63;;;14.35;;
583;SDS011;27024;54.068;12.116;2022-09-09T02:57:16;29.17;;;14.98;;
583;SDS011;27024;54.068;12.116;2022-09-09T03:02:14;27.75;;;15.02;;
583;SDS011;27024;54.068;12.116;2022-09-09T03:04:41;30.20;;;14.88;;
583;SDS011;27024;54.068;12.116;2022-09-09T03:07:11;33.92;;;15.85;;
583;SDS011;27024;54.068;12.116;2022-09-09T03:09:38;33.08;;;15.32;;
583;SDS011;27024;54.068;12.116;2022-09-09T03:12:05;32.90;;;16.30;;
583;SDS011;27024;54.068;12.116;2022-09-09T03:14:33;33.60;;;15.98;;
583;SDS011;27024;54.068;12.116;2022-09-09T03:17:00;32.90;;;15.32;;
583;SDS011;27024;54.068;12.116;2022-09-09T03:19:28;31.50;;;15.85;;
583;SDS011;27024;54.068;12.116;2022-09-09T03:21:56;33.40;;;15.90;;
583;SDS011;27024;54.068;12.116;2022-09-09T03:24:23;30.75;;;14.75;;
583;SDS011;27024;54.068;12.116;2022-09-09T03:26:50;34.95;;;15.75;;
583;SDS011;27024;54.068;12.116;2022-09-09T03:29:16;29.30;;;14.93;;
583;SDS011;27024;54.068;12.116;2022-09-09T03:31:44;29.67;;;14.52;;
583;SDS011;27024;54.068;12.116;2022-09-09T03:34:11;29.17;;;13.80;;
583;SDS011;27024;54.068;12.116;2022-09-09T03:36:39;30.35;;;14.07;;
583;SDS011;27024;54.068;12.116;2022-09-09T03:39:07;29.05;;;14.65;;
583;SDS011;27024;54.068;12.116;2022-09-09T03:41:34;32.08;;;15.18;;
583;SDS011;27024;54.068;12.116;2022-09-09T03:44:00;32.15;;;14.23;;
583;SDS011;27024;54.068;12.116;2022-09-09T03:46:27;31.92;;;15.95;;
583;SDS011;27024;54.068;12.116;2022-09-09T03:48:54;30.88;;;14.50;;
583;SDS011;27024;54.068;12.116;2022-09-09T03:51:21;29.88;;;15.07;;
583;SDS011;27024;54.068;12.116;2022-09-09T03:53:48;30.88;;;15.40;;
583;SDS011;27024;54.068;12.116;2022-09-09T03:56:15;34.55;;;15.82;;
583;SDS011;27024;54.068;12.116;2022-09-09T03:58:42;36.88;;;16.55;;
583;SDS011;27024;54.068;12.116;2022-09-09T04:01:10;33.25;;;15.55;;
583;SDS011;27024;54.068;12.116;2022-09-09T04:03:42;34.72;;;14.82;;
583;SDS011;27024;54.068;12.116;2022-09-09T04:06:12;33.30;;;15.63;;
583;SDS011;27024;54.068;12.116;2022-09-09T04:08:41;34.17;;;16.58;;
583;SDS011;27024;54.068;12.116;2022-09-09T04:11:08;40.25;;;16.92;;
583;SDS011;27024;54.068;12.116;2022-09-09T04:13:36;37.05;;;17.63;;
583;SDS011;27024;54.068;12.116;2022-09-09T04:16:05;42.03;;;18.05;;
583;SDS011;27024;54.068;12.116;2022-09-09T04:18:33;37.50;;;17.17;;
583;SDS011;27024;54.068;12.116;2022-09-09T04:21:01;40.80;;;17.23;;
583;SDS011;27024;54.068;12.116;2022-09-09T04:23:29;40.22;;;16.98;;
583;SDS011;27024;54.068;12.116;2022-09-09T04:25:57;40.33;;;17.73;;
583;SDS011;27024;54.068;12.116;2022-09-09T04:28:26;39.35;;;17.85;;
583;SDS011;27024;54.068;12.116;2022-09-09T04:30:55;37.67;;;18.00;;
583;SDS011;27024;54.068;12.116;2022-09-09T04:33:23;37.42;;;17.42;;
583;SDS011;27024;54.068;12.116;2022-09-09T04:35:53;37.38;;;16.50;;
583;SDS011;27024;54.068;12.116;2022-09-09T04:38:20;39.45;;;16.38;;
583;SDS011;27024;54.068;12.116;2022-09-09T04:40:49;39.35;;;16.80;;
583;SDS011;27024;54.068;12.116;2022-09-09T04:43:18;39.92;;;16.98;;
583;SDS011;27024;54.068;12.116;2022-09-09T04:45:47;42.63;;;17.30;;
583;SDS011;27024;54.068;12.116;2022-09-09T04:48:15;37.50;;;16.58;;
583;SDS011;27024;54.068;12.116;2022-09-09T04:50:42;40.17;;;17.15;;
583;SDS011;27024;54.068;12.116;2022-09-09T04:53:09;38.97;;;17.15;;
583;SDS011;27024;54.068;12.116;2022-09-09T04:55:36;39.40;;;17.63;;
583;SDS011;27024;54.068;12.116;2022-09-09T04:58:06;41.88;;;17.58;;
583;SDS011;27024;54.068;12.116;2022-09-09T05:00:35;40.72;;;17.17;;
583;SDS011;27024;54.068;12.116;2022-09-09T05:03:03;44.85;;;17.27;;
583;SDS011;27024;54.068;12.116;2022-09-09T05:05:32;43.58;;;16.65;;
583;SDS011;27024;54.068;12.116;2022-09-09T05:08:06;47.35;;;17.45;;
583;SDS011;27024;54.068;12.116;2022-09-09T05:10:36;46.35;;;16.95;;
583;SDS011;27024;54.068;12.116;2022-09-09T05:13:04;50.90;;;17.38;;
583;SDS011;27024;54.068;12.116;2022-09-09T05:15:32;51.80;;;18.15;;
583;SDS011;27024;54.068;12.116;2022-09-09T05:18:00;48.15;;;17.67;;
583;SDS011;27024;54.068;12.116;2022-09-09T05:20:28;50.25;;;18.85;;
583;SDS011;27024;54.068;12.116;2022-09-09T05:22:55;58.33;;;21.33;;
583;SDS011;27024;54.068;12.116;2022-09-09T05:25:23;59.47;;;22.73;;
583;SDS011;27024;54.068;12.116;2022-09-09T05:27:52;62.90;;;22.35;;
583;SDS011;27024;54.068;12.116;2022-09-09T05:30:20;65.38;;;23.33;;
583;SDS011;27024;54.068;12.116;2022-09-09T05:32:49;61.38;;;24.50;;
583;SDS011;27024;54.068;12.116;2022-09-09T05:35:16;63.67;;;25.45;;
583;SDS011;27024;54.068;12.116;2022-09-09T05:37:45;63.03;;;25.02;;
583;SDS011;27024;54.068;12.116;2022-09-09T05:40:12;69.63;;;26.38;;
583;SDS011;27024;54.068;12.116;2022-09-09T05:42:39;65.82;;;25.58;;
583;SDS011;27024;54.068;12.116;2022-09-09T05:45:07;68.57;;;27.92;;
583;SDS011;27024;54.068;12.116;2022-09-09T05:47:35;63.22;;;25.55;;
583;SDS011;27024;54.068;12.116;2022-09-09T05:50:03;68.93;;;26.13;;
583;SDS011;27024;54.068;12.116;2022-09-09T05:52:31;65.13;;;26.08;;
583;SDS011;27024;54.068;12.116;2022-09-09T05:54:58;60.35;;;25.45;;
583;SDS011;27024;54.068;12.116;2022-09-09T05:57:26;59.38;;;25.38;;
583;SDS011;27024;54.068;12.116;2022-09-09T05:59:53;54.85;;;23.95;;
583;SDS011;27024;54.068;12.116;2022-09-09T06:02:20;56.40;;;24.65;;
583;SDS011;27024;54.068;12.116;2022-09-09T06:04:47;43.00;;;21.65;;
583;SDS011;27024;54.068;12.116;2022-09-09T06:07:14;42.85;;;21.42;;
583;SDS011;27024;54.068;12.116;2022-09-09T06:09:41;45.70;;;22.77;;
583;SDS011;27024;54.068;12.116;2022-09-09T06:12:08;40.53;;;20.58;;
583;SDS011;27024;54.068;12.116;2022-09-09T06:14:35;35.47;;;19.67;;
583;SDS011;27024;54.068;12.116;2022-09-09T06:17:03;39.38;;;19.70;;
583;SDS011;27024;54.068;12.116;2022-09-09T06:19:30;35.28;;;18.25;;
583;SDS011;27024;54.068;12.116;2022-09-09T06:21:57;38.50;;;19.05;;
583;SDS011;27024;54.068;12.116;2022-09-09T06:24:24;36.42;;;17.73;;
583;SDS011;27024;54.068;12.116;2022-09-09T06:26:51;31.63;;;17.17;;
583;SDS011;27024;54.068;12.116;2022-09-09T06:29:18;35.70;;;17.63;;
583;SDS011;27024;54.068;12.116;2022-09-09T06:31:45;32.25;;;16.58;;
583;SDS011;27024;54.068;12.116;2022-09-09T06:34:11;33.55;;;15.57;;
583;SDS011;27024;54.068;12.116;2022-09-09T06:36:39;32.05;;;16.02;;
583;SDS011;27024;54.068;12.116;2022-09-09T06:39:06;33.25;;;16.77;;
583;SDS011;27024;54.068;12.116;2022-09-09T06:41:40;30.20;;;15.65;;
583;SDS011;27024;54.068;12.116;2022-09-09T06:44:07;31.10;;;16.15;;
583;SDS011;27024;54.068;12.116;2022-09-09T06:46:34;30.05;;;15.73;;
583;SDS011;27024;54.068;12.116;2022-09-09T06:49:02;31.20;;;16.75;;
583;SDS011;27024;54.068;12.116;2022-09-09T06:51:30;35.13;;;17.15;;
583;SDS011;27024;54.068;12.116;2022-09-09T06:53:58;34.67;;;16.42;;
583;SDS011;27024;54.068;12.116;2022-09-09T06:56:34;33.55;;;17.35;;
583;SDS011;27024;54.068;12.116;2022-09-09T06:59:03;32.97;;;16.35;;
583;SDS011;27024;54.068;12.116;2022-09-09T07:01:32;36.97;;;16.65;;
583;SDS011;27024;54.068;12.116;2022-09-09T07:04:00;36.45;;;17.45;;
583;SDS011;27024;54.068;12.116;2022-09-09T07:06:29;36.60;;;17.98;;
583;SDS011;27024;54.068;12.116;2022-09-09T07:09:01;38.47;;;18.00;;
583;SDS011;27024;54.068;12.116;2022-09-09T07:11:33;37.35;;;18.42;;
583;SDS011;27024;54.068;12.116;2022-09-09T07:14:05;38.78;;;18.33;;
583;SDS011;27024;54.068;12.116;2022-09-09T07:16:31;37.42;;;19.42;;
583;SDS011;27024;54.068;12.116;2022-09-09T07:18:59;35.45;;;19.50;;
583;SDS011;27024;54.068;12.116;2022-09-09T07:21:27;36.25;;;18.98;;
583;SDS011;27024;54.068;12.116;2022-09-09T07:23:55;36.70;;;19.52;;
583;SDS011;27024;54.068;12.116;2022-09-09T07:26:24;35.78;;;19.92;;
583;SDS011;27024;54.068;12.116;2022-09-09T07:28:52;39.38;;;20.05;;
583;SDS011;27024;54.068;12.116;2022-09-09T07:31:24;40.45;;;21.80;;
583;SDS011;27024;54.068;12.116;2022-09-09T07:33:52;42.67;;;21.00;;
583;SDS011;27024;54.068;12.116;2022-09-09T07:36:21;35.28;;;19.20;;
583;SDS011;27024;54.068;12.116;2022-09-09T07:39:03;40.85;;;21.58;;
583;SDS011;27024;54.068;12.116;2022-09-09T07:44:07;38.92;;;20.58;;
583;SDS011;27024;54.068;12.116;2022-09-09T07:46:38;37.92;;;20.10;;
583;SDS011;27024;54.068;12.116;2022-09-09T07:49:06;38.85;;;21.50;;
583;SDS011;27024;54.068;12.116;2022-09-09T07:51:35;35.20;;;20.48;;
583;SDS011;27024;54.068;12.116;2022-09-09T07:54:05;34.17;;;19.42;;
583;SDS011;27024;54.068;12.116;2022-09-09T07:56:33;31.42;;;18.98;;
583;SDS011;27024;54.068;12.116;2022-09-09T07:59:00;38.20;;;20.50;;
583;SDS011;27024;54.068;12.116;2022-09-09T08:01:29;37.05;;;19.60;;
583;SDS011;27024;54.068;12.116;2022-09-09T08:04:07;35.83;;;19.08;;
583;SDS011;27024;54.068;12.116;2022-09-09T08:06:47;35.47;;;20.13;;
583;SDS011;27024;54.068;12.116;2022-09-09T08:09:16;33.33;;;19.25;;
583;SDS011;27024;54.068;12.116;2022-09-09T08:11:43;38.13;;;20.05;;
583;SDS011;27024;54.068;12.116;2022-09-09T08:14:10;35.85;;;19.38;;
583;SDS011;27024;54.068;12.116;2022-09-09T08:16:42;33.97;;;18.58;;
583;SDS011;27024;54.068;12.116;2022-09-09T08:19:11;32.10;;;17.40;;
583;SDS011;27024;54.068;12.116;2022-09-09T08:21:39;32.50;;;17.00;;
583;SDS011;27024;54.068;12.116;2022-09-09T08:24:07;32.00;;;17.25;;
583;SDS011;27024;54.068;12.116;2022-09-09T08:26:37;32.38;;;17.77;;
583;SDS011;27024;54.068;12.116;2022-09-09T08:29:06;31.52;;;18.13;;
583;SDS011;27024;54.068;12.116;2022-09-09T08:31:35;28.60;;;17.10;;
583;SDS011;27024;54.068;12.116;2022-09-09T08:34:04;28.98;;;17.02;;
583;SDS011;27024;54.068;12.116;2022-09-09T08:36:33;24.92;;;16.52;;
583;SDS011;27024;54.068;12.116;2022-09-09T08:39:03;23.80;;;14.57;;
583;SDS011;27024;54.068;12.116;2022-09-09T08:57:56;20.88;;;13.45;;
583;SDS011;27024;54.068;12.116;2022-09-09T09:00:30;24.88;;;14.27;;
583;SDS011;27024;54.068;12.116;2022-09-09T09:03:28;21.38;;;14.77;;
583;SDS011;27024;54.068;12.116;2022-09-09T09:11:59;21.10;;;13.63;;
583;SDS011;27024;54.068;12.116;2022-09-09T09:14:28;19.60;;;13.82;;
583;SDS011;27024;54.068;12.116;2022-09-09T09:16:58;18.80;;;13.30;;
583;SDS011;27024;54.068;12.116;2022-09-09T09:19:28;21.35;;;15.10;;
583;SDS011;27024;54.068;12.116;2022-09-09T09:24:30;20.08;;;13.90;;
583;SDS011;27024;54.068;12.116;2022-09-09T09:27:07;21.42;;;13.57;;
583;SDS011;27024;54.068;12.116;2022-09-09T09:29:39;23.65;;;14.00;;
583;SDS011;27024;54.068;12.116;2022-09-09T09:32:29;17.88;;;13.35;;
583;SDS011;27024;54.068;12.116;2022-09-09T09:34:59;19.90;;;14.55;;
583;SDS011;27024;54.068;12.116;2022-09-09T09:37:31;18.33;;;11.80;;
583;SDS011;27024;54.068;12.116;2022-09-09T09:40:14;18.95;;;12.85;;
583;SDS011;27024;54.068;12.116;2022-09-09T09:45:33;15.30;;;11.48;;
583;SDS011;27024;54.068;12.116;2022-09-09T09:48:21;16.08;;;12.05;;
583;SDS011;27024;54.068;12.116;2022-09-09T09:53:22;14.48;;;10.95;;
583;SDS011;27024;54.068;12.116;2022-09-09T09:58:51;12.95;;;9.93;;
583;SDS011;27024;54.068;12.116;2022-09-09T10:01:29;12.40;;;8.63;;
583;SDS011;27024;54.068;12.116;2022-09-09T10:04:00;11.93;;;8.85;;
583;SDS011;27024;54.068;12.116;2022-09-09T10:06:44;10.73;;;8.07;;
583;SDS011;27024;54.068;12.116;2022-09-09T10:09:44;11.77;;;8.82;;
583;SDS011;27024;54.068;12.116;2022-09-09T10:14:53;10.63;;;8.05;;
583;SDS011;27024;54.068;12.116;2022-09-09T10:23:06;9.45;;;8.45;;
583;SDS011;27024;54.068;12.116;2022-09-09T10:25:50;10.10;;;6.93;;
583;SDS011;27024;54.068;12.116;2022-09-09T10:28:43;9.32;;;6.45;;
583;SDS011;27024;54.068;12.116;2022-09-09T10:31:24;8.90;;;6.50;;
583;SDS011;27024;54.068;12.116;2022-09-09T10:37:02;9.85;;;6.97;;
583;SDS011;27024;54.068;12.116;2022-09-09T10:39:38;11.00;;;6.50;;
583;SDS011;27024;54.068;12.116;2022-09-09T10:42:09;8.98;;;6.35;;
583;SDS011;27024;54.068;12.116;2022-09-09T10:50:56;8.98;;;7.10;;
583;SDS011;27024;54.068;12.116;2022-09-09T10:56:31;9.65;;;6.90;;
583;SDS011;27024;54.068;12.116;2022-09-09T10:58:59;10.70;;;6.50;;
583;SDS011;27024;54.068;12.116;2022-09-09T11:01:36;8.88;;;6.63;;
583;SDS011;27024;54.068;12.116;2022-09-09T11:04:53;7.78;;;4.55;;
583;SDS011;27024;54.068;12.116;2022-09-09T11:08:04;6.43;;;4.40;;
583;SDS011;27024;54.068;12.116;2022-09-09T11:10:24;4.88;;;3.65;;
583;SDS011;27024;54.068;12.116;2022-09-09T11:12:57;5.72;;;4.18;;
583;SDS011;27024;54.068;12.116;2022-09-09T11:15:36;5.47;;;3.75;;
583;SDS011;27024;54.068;12.116;2022-09-09T11:18:09;6.50;;;4.15;;
583;SDS011;27024;54.068;12.116;2022-09-09T11:20:42;5.18;;;3.70;;
583;SDS011;27024;54.068;12.116;2022-09-09T11:23:12;7.18;;;4.28;;
583;SDS011;27024;54.068;12.116;2022-09-09T11:25:44;6.13;;;4.30;;
583;SDS011;27024;54.068;12.116;2022-09-09T11:33:52;7.10;;;4.25;;
583;SDS011;27024;54.068;12.116;2022-09-09T11:42:29;6.45;;;3.90;;
583;SDS011;27024;54.068;12.116;2022-09-09T11:44:56;5.78;;;4.07;;
583;SDS011;27024;54.068;12.116;2022-09-09T11:47:25;7.28;;;4.72;;
583;SDS011;27024;54.068;12.116;2022-09-09T11:52:43;7.40;;;5.20;;
583;SDS011;27024;54.068;12.116;2022-09-09T11:55:27;6.15;;;4.00;;
583;SDS011;27024;54.068;12.116;2022-09-09T12:00:35;7.20;;;3.80;;
583;SDS011;27024;54.068;12.116;2022-09-09T12:08:41;5.88;;;3.00;;
583;SDS011;27024;54.068;12.116;2022-09-09T12:11:11;6.13;;;2.97;;
583;SDS011;27024;54.068;12.116;2022-09-09T12:13:37;3.72;;;2.58;;
583;SDS011;27024;54.068;12.116;2022-09-09T12:16:04;5.03;;;2.72;;
583;SDS011;27024;54.068;12.116;2022-09-09T12:24:05;4.57;;;2.80;;
583;SDS011;27024;54.068;12.116;2022-09-09T12:31:54;4.85;;;2.50;;
583;SDS011;27024;54.068;12.116;2022-09-09T12:34:30;7.22;;;3.17;;
583;SDS011;27024;54.068;12.116;2022-09-09T12:37:04;5.88;;;2.97;;
583;SDS011;27024;54.068;12.116;2022-09-09T12:39:45;5.57;;;2.78;;
583;SDS011;27024;54.068;12.116;2022-09-09T12:42:23;7.93;;;2.83;;
583;SDS011;27024;54.068;12.116;2022-09-09T12:44:55;5.60;;;2.83;;
583;SDS011;27024;54.068;12.116;2022-09-09T12:49:55;5.90;;;3.20;;
583;SDS011;27024;54.068;12.116;2022-09-09T12:52:30;5.93;;;2.83;;
583;SDS011;27024;54.068;12.116;2022-09-09T12:55:02;4.43;;;2.30;;
583;SDS011;27024;54.068;12.116;2022-09-09T12:57:35;4.55;;;2.25;;
583;SDS011;27024;54.068;12.116;2022-09-09T13:00:14;3.83;;;2.13;;
583;SDS011;27024;54.068;12.116;2022-09-09T13:02:47;5.47;;;2.28;;
583;SDS011;27024;54.068;12.116;2022-09-09T13:05:23;5.40;;;2.08;;
583;SDS011;27024;54.068;12.116;2022-09-09T13:07:52;4.60;;;3.08;;
583;SDS011;27024;54.068;12.116;2022-09-09T13:10:29;4.15;;;1.80;;
583;SDS011;27024;54.068;12.116;2022-09-09T13:13:22;4.00;;;1.70;;
583;SDS011;27024;54.068;12.116;2022-09-09T13:15:56;3.53;;;2.05;;
583;SDS011;27024;54.068;12.116;2022-09-09T13:18:28;6.20;;;2.33;;
583;SDS011;27024;54.068;12.116;2022-09-09T13:20:58;5.03;;;2.53;;
583;SDS011;27024;54.068;12.116;2022-09-09T13:23:29;3.47;;;2.25;;
583;SDS011;27024;54.068;12.116;2022-09-09T13:25:59;3.95;;;2.33;;
583;SDS011;27024;54.068;12.116;2022-09-09T13:28:29;5.85;;;2.58;;
583;SDS011;27024;54.068;12.116;2022-09-09T13:31:01;4.55;;;2.05;;
583;SDS011;27024;54.068;12.116;2022-09-09T13:33:30;4.60;;;2.20;;
583;SDS011;27024;54.068;12.116;2022-09-09T13:36:00;6.72;;;2.58;;
583;SDS011;27024;54.068;12.116;2022-09-09T13:38:31;6.03;;;2.30;;
583;SDS011;27024;54.068;12.116;2022-09-09T13:41:06;6.43;;;3.40;;
583;SDS011;27024;54.068;12.116;2022-09-09T13:43:35;5.57;;;2.55;;
583;SDS011;27024;54.068;12.116;2022-09-09T13:46:05;5.30;;;2.70;;
583;SDS011;27024;54.068;12.116;2022-09-09T13:51:37;6.57;;;2.45;;
583;SDS011;27024;54.068;12.116;2022-09-09T13:54:06;5.00;;;2.65;;
583;SDS011;27024;54.068;12.116;2022-09-09T13:56:36;6.00;;;2.60;;
583;SDS011;27024;54.068;12.116;2022-09-09T13:59:06;5.13;;;2.53;;
583;SDS011;27024;54.068;12.116;2022-09-09T14:01:35;4.13;;;1.90;;
583;SDS011;27024;54.068;12.116;2022-09-09T14:04:04;5.05;;;1.58;;
583;SDS011;27024;54.068;12.116;2022-09-09T14:06:33;4.22;;;1.70;;
583;SDS011;27024;54.068;12.116;2022-09-09T14:09:06;5.57;;;1.42;;
583;SDS011;27024;54.068;12.116;2022-09-09T14:11:36;3.83;;;1.50;;
583;SDS011;27024;54.068;12.116;2022-09-09T14:14:02;4.97;;;2.00;;
583;SDS011;27024;54.068;12.116;2022-09-09T14:16:29;4.28;;;2.30;;
583;SDS011;27024;54.068;12.116;2022-09-09T14:18:56;4.68;;;2.97;;
583;SDS011;27024;54.068;12.116;2022-09-09T14:21:23;5.53;;;1.38;;
583;SDS011;27024;54.068;12.116;2022-09-09T14:23:51;2.83;;;1.25;;
583;SDS011;27024;54.068;12.116;2022-09-09T14:26:19;4.30;;;1.52;;
583;SDS011;27024;54.068;12.116;2022-09-09T14:28:49;4.70;;;1.52;;
583;SDS011;27024;54.068;12.116;2022-09-09T14:31:21;3.60;;;1.77;;
583;SDS011;27024;54.068;12.116;2022-09-09T14:33:48;5.13;;;2.20;;
583;SDS011;27024;54.068;12.116;2022-09-09T14:36:17;5.50;;;1.90;;
583;SDS011;27024;54.068;12.116;2022-09-09T14:38:44;4.15;;;1.67;;
583;SDS011;27024;54.068;12.116;2022-09-09T14:41:12;4.18;;;1.92;;
583;SDS011;27024;54.068;12.116;2022-09-09T14:43:43;5.30;;;2.05;;
583;SDS011;27024;54.068;12.116;2022-09-09T14:46:12;5.15;;;1.92;;
583;SDS011;27024;54.068;12.116;2022-09-09T14:48:40;4.47;;;2.00;;
583;SDS011;27024;54.068;12.116;2022-09-09T14:51:11;5.13;;;2.15;;
583;SDS011;27024;54.068;12.116;2022-09-09T14:53:40;4.70;;;2.50;;
583;SDS011;27024;54.068;12.116;2022-09-09T14:56:08;5.25;;;2.50;;
583;SDS011;27024;54.068;12.116;2022-09-09T14:58:36;4.75;;;2.42;;
583;SDS011;27024;54.068;12.116;2022-09-09T15:01:04;5.95;;;2.53;;
583;SDS011;27024;54.068;12.116;2022-09-09T15:03:33;6.75;;;2.30;;
583;SDS011;27024;54.068;12.116;2022-09-09T15:06:04;4.75;;;2.50;;
583;SDS011;27024;54.068;12.116;2022-09-09T15:08:32;4.68;;;2.50;;
583;SDS011;27024;54.068;12.116;2022-09-09T15:10:59;6.07;;;2.72;;
583;SDS011;27024;54.068;12.116;2022-09-09T15:13:28;6.07;;;2.67;;
583;SDS011;27024;54.068;12.116;2022-09-09T15:15:55;8.40;;;2.90;;
583;SDS011;27024;54.068;12.116;2022-09-09T15:18:22;5.15;;;2.60;;
583;SDS011;27024;54.068;12.116;2022-09-09T15:20:48;8.25;;;2.60;;
583;SDS011;27024;54.068;12.116;2022-09-09T15:23:16;7.35;;;2.53;;
583;SDS011;27024;54.068;12.116;2022-09-09T15:25:50;5.90;;;2.75;;
583;SDS011;27024;54.068;12.116;2022-09-09T15:28:18;6.85;;;2.67;;
583;SDS011;27024;54.068;12.116;2022-09-09T15:30:52;6.70;;;3.00;;
583;SDS011;27024;54.068;12.116;2022-09-09T15:33:20;5.47;;;2.85;;
583;SDS011;27024;54.068;12.116;2022-09-09T15:35:48;4.88;;;2.70;;
583;SDS011;27024;54.068;12.116;2022-09-09T15:38:16;6.15;;;3.15;;
583;SDS011;27024;54.068;12.116;2022-09-09T15:40:43;5.25;;;2.70;;
583;SDS011;27024;54.068;12.116;2022-09-09T15:43:11;5.78;;;2.55;;
583;SDS011;27024;54.068;12.116;2022-09-09T15:45:39;7.57;;;2.83;;
583;SDS011;27024;54.068;12.116;2022-09-09T15:48:06;6.47;;;2.67;;
583;SDS011;27024;54.068;12.116;2022-09-09T15:50:34;6.95;;;2.72;;
583;SDS011;27024;54.068;12.116;2022-09-09T15:53:01;5.50;;;2.78;;
583;SDS011;27024;54.068;12.116;2022-09-09T15:55:28;4.80;;;3.13;;
583;SDS011;27024;54.068;12.116;2022-09-09T15:57:55;7.45;;;3.30;;
583;SDS011;27024;54.068;12.116;2022-09-09T16:00:23;6.88;;;2.95;;
583;SDS011;27024;54.068;12.116;2022-09-09T16:02:51;7.57;;;3.00;;
583;SDS011;27024;54.068;12.116;2022-09-09T16:05:18;5.80;;;3.22;;
583;SDS011;27024;54.068;12.116;2022-09-09T16:07:45;9.13;;;3.33;;
583;SDS011;27024;54.068;12.116;2022-09-09T16:10:12;6.95;;;3.38;;
583;SDS011;27024;54.068;12.116;2022-09-09T16:12:39;5.72;;;3.28;;
583;SDS011;27024;54.068;12.116;2022-09-09T16:15:06;6.97;;;3.50;;
583;SDS011;27024;54.068;12.116;2022-09-09T16:17:33;7.85;;;3.80;;
583;SDS011;27024;54.068;12.116;2022-09-09T16:20:04;8.23;;;3.90;;
583;SDS011;27024;54.068;12.116;2022-09-09T16:22:33;6.82;;;3.75;;
583;SDS011;27024;54.068;12.116;2022-09-09T16:25:00;6.32;;;4.22;;
583;SDS011;27024;54.068;12.116;2022-09-09T16:27:27;7.72;;;4.30;;
583;SDS011;27024;54.068;12.116;2022-09-09T16:29:54;8.43;;;4.30;;
583;SDS011;27024;54.068;12.116;2022-09-09T16:32:20;9.32;;;4.80;;
583;SDS011;27024;54.068;12.116;2022-09-09T16:34:47;7.38;;;4.20;;
583;SDS011;27024;54.068;12.116;2022-09-09T16:37:14;7.18;;;4.40;;
583;SDS011;27024;54.068;12.116;2022-09-09T16:39:40;7.20;;;4.00;;
583;SDS011;27024;54.068;12.116;2022-09-09T16:42:07;7.75;;;3.85;;
583;SDS011;27024;54.068;12.116;2022-09-09T16:44:35;8.05;;;3.63;;
583;SDS011;27024;54.068;12.116;2022-09-09T16:47:02;9.05;;;4.53;;
583;SDS011;27024;54.068;12.116;2022-09-09T16:49:29;9.18;;;4.55;;
583;SDS011;27024;54.068;12.116;2022-09-09T16:51:57;8.15;;;4.00;;
583;SDS011;27024;54.068;12.116;2022-09-09T16:54:25;4.97;;;2.50;;
583;SDS011;27024;54.068;12.116;2022-09-09T16:56:53;7.03;;;2.92;;
583;SDS011;27024;54.068;12.116;2022-09-09T16:59:20;5.88;;;3.28;;
583;SDS011;27024;54.068;12.116;2022-09-09T17:01:48;9.68;;;3.60;;
583;SDS011;27024;54.068;12.116;2022-09-09T17:04:18;6.32;;;3.40;;
583;SDS011;27024;54.068;12.116;2022-09-09T17:06:47;7.53;;;3.17;;
583;SDS011;27024;54.068;12.116;2022-09-09T17:09:16;6.90;;;3.08;;
583;SDS011;27024;54.068;12.116;2022-09-09T17:11:43;5.07;;;2.53;;
583;SDS011;27024;54.068;12.116;2022-09-09T17:14:13;2.88;;;1.50;;
583;SDS011;27024;54.068;12.116;2022-09-09T17:16:43;5.60;;;1.20;;
583;SDS011;27024;54.068;12.116;2022-09-09T17:19:10;3.17;;;1.00;;
583;SDS011;27024;54.068;12.116;2022-09-09T17:21:37;3.50;;;0.85;;
583;SDS011;27024;54.068;12.116;2022-09-09T17:24:25;1.55;;;0.55;;
583;SDS011;27024;54.068;12.116;2022-09-09T17:26:53;1.92;;;1.02;;
583;SDS011;27024;54.068;12.116;2022-09-09T17:29:21;1.83;;;0.52;;
583;SDS011;27024;54.068;12.116;2022-09-09T17:31:48;2.35;;;0.47;;
583;SDS011;27024;54.068;12.116;2022-09-09T17:34:14;2.92;;;0.90;;
583;SDS011;27024;54.068;12.116;2022-09-09T17:36:41;1.63;;;0.40;;
583;SDS011;27024;54.068;12.116;2022-09-09T17:39:08;1.10;;;0.30;;